sensor_id;sensor_type;location;lat;lon;timestamp;P1;durP1;ratioP1;P2;durP2;ratioP2
52878;SDS011;38747;53.140;6.498;2023-05-07T00:00:20;19.88;;;11.93;;
52878;SDS011;38747;53.140;6.498;2023-05-07T00:02:46;19.40;;;11.87;;
52878;SDS011;38747;53.140;6.498;2023-05-07T00:05:12;20.20;;;11.02;;
52878;SDS011;38747;53.140;6.498;2023-05-07T00:07:38;19.55;;;11.85;;
52878;SDS011;38747;53.140;6.498;2023-05-07T00:10:03;22.27;;;12.90;;
52878;SDS011;38747;53.140;6.498;2023-05-07T00:12:31;17.98;;;11.80;;
52878;SDS011;38747;53.140;6.498;2023-05-07T00:14:58;20.67;;;11.35;;
52878;SDS011;38747;53.140;6.498;2023-05-07T00:17:27;19.33;;;12.18;;
52878;SDS011;38747;53.140;6.498;2023-05-07T00:19:53;20.00;;;11.67;;
52878;SDS011;38747;53.140;6.498;2023-05-07T00:22:19;21.00;;;12.90;;
52878;SDS011;38747;53.140;6.498;2023-05-07T00:24:44;20.03;;;11.73;;
52878;SDS011;38747;53.140;6.498;2023-05-07T00:27:10;20.20;;;11.43;;
52878;SDS011;38747;53.140;6.498;2023-05-07T00:29:35;20.30;;;11.98;;
52878;SDS011;38747;53.140;6.498;2023-05-07T00:32:01;19.57;;;11.83;;
52878;SDS011;38747;53.140;6.498;2023-05-07T00:34:28;22.43;;;12.70;;
52878;SDS011;38747;53.140;6.498;2023-05-07T00:36:54;22.98;;;12.60;;
52878;SDS011;38747;53.140;6.498;2023-05-07T00:39:19;20.23;;;12.80;;
52878;SDS011;38747;53.140;6.498;2023-05-07T00:41:45;24.02;;;13.13;;
52878;SDS011;38747;53.140;6.498;2023-05-07T00:44:11;19.83;;;11.73;;
52878;SDS011;38747;53.140;6.498;2023-05-07T00:46:37;22.98;;;12.38;;
52878;SDS011;38747;53.140;6.498;2023-05-07T00:49:03;20.30;;;12.25;;
52878;SDS011;38747;53.140;6.498;2023-05-07T00:51:29;21.67;;;13.27;;
52878;SDS011;38747;53.140;6.498;2023-05-07T00:53:55;22.83;;;12.90;;
52878;SDS011;38747;53.140;6.498;2023-05-07T00:56:21;20.73;;;12.90;;
52878;SDS011;38747;53.140;6.498;2023-05-07T00:58:47;25.50;;;13.20;;
52878;SDS011;38747;53.140;6.498;2023-05-07T01:01:13;21.43;;;12.33;;
52878;SDS011;38747;53.140;6.498;2023-05-07T01:03:41;21.35;;;12.15;;
52878;SDS011;38747;53.140;6.498;2023-05-07T01:06:07;21.20;;;13.27;;
52878;SDS011;38747;53.140;6.498;2023-05-07T01:08:34;21.80;;;12.75;;
52878;SDS011;38747;53.140;6.498;2023-05-07T01:11:01;21.50;;;12.57;;
52878;SDS011;38747;53.140;6.498;2023-05-07T01:13:27;21.83;;;12.63;;
52878;SDS011;38747;53.140;6.498;2023-05-07T01:15:53;21.55;;;12.75;;
52878;SDS011;38747;53.140;6.498;2023-05-07T01:18:19;24.77;;;13.45;;
52878;SDS011;38747;53.140;6.498;2023-05-07T01:20:45;23.10;;;13.30;;
52878;SDS011;38747;53.140;6.498;2023-05-07T01:23:11;23.05;;;13.27;;
52878;SDS011;38747;53.140;6.498;2023-05-07T01:25:37;22.15;;;13.18;;
52878;SDS011;38747;53.140;6.498;2023-05-07T01:28:03;23.17;;;13.63;;
52878;SDS011;38747;53.140;6.498;2023-05-07T01:30:29;23.73;;;13.20;;
52878;SDS011;38747;53.140;6.498;2023-05-07T01:33:00;22.65;;;13.73;;
52878;SDS011;38747;53.140;6.498;2023-05-07T01:35:42;23.80;;;13.00;;
52878;SDS011;38747;53.140;6.498;2023-05-07T01:38:10;25.20;;;14.05;;
52878;SDS011;38747;53.140;6.498;2023-05-07T01:40:37;22.92;;;13.65;;
52878;SDS011;38747;53.140;6.498;2023-05-07T01:43:03;23.15;;;13.73;;
52878;SDS011;38747;53.140;6.498;2023-05-07T01:45:30;23.33;;;13.83;;
52878;SDS011;38747;53.140;6.498;2023-05-07T01:47:57;22.70;;;13.60;;
52878;SDS011;38747;53.140;6.498;2023-05-07T01:50:24;22.67;;;13.63;;
52878;SDS011;38747;53.140;6.498;2023-05-07T01:52:51;25.02;;;15.05;;
52878;SDS011;38747;53.140;6.498;2023-05-07T01:55:17;26.40;;;14.73;;
52878;SDS011;38747;53.140;6.498;2023-05-07T01:57:43;26.60;;;13.83;;
52878;SDS011;38747;53.140;6.498;2023-05-07T02:00:09;24.73;;;14.68;;
52878;SDS011;38747;53.140;6.498;2023-05-07T02:02:35;26.08;;;14.15;;
52878;SDS011;38747;53.140;6.498;2023-05-07T02:05:00;26.40;;;15.60;;
52878;SDS011;38747;53.140;6.498;2023-05-07T02:07:27;24.13;;;14.45;;
52878;SDS011;38747;53.140;6.498;2023-05-07T02:09:53;27.67;;;15.57;;
52878;SDS011;38747;53.140;6.498;2023-05-07T02:12:20;27.40;;;15.20;;
52878;SDS011;38747;53.140;6.498;2023-05-07T02:14:46;25.95;;;15.18;;
52878;SDS011;38747;53.140;6.498;2023-05-07T02:17:12;24.03;;;14.77;;
52878;SDS011;38747;53.140;6.498;2023-05-07T02:19:37;24.83;;;14.87;;
52878;SDS011;38747;53.140;6.498;2023-05-07T02:22:03;27.40;;;14.80;;
52878;SDS011;38747;53.140;6.498;2023-05-07T02:24:28;26.70;;;15.30;;
52878;SDS011;38747;53.140;6.498;2023-05-07T02:26:55;27.67;;;15.88;;
52878;SDS011;38747;53.140;6.498;2023-05-07T02:29:20;26.97;;;14.93;;
52878;SDS011;38747;53.140;6.498;2023-05-07T02:31:46;26.30;;;14.82;;
52878;SDS011;38747;53.140;6.498;2023-05-07T02:34:15;27.35;;;15.75;;
52878;SDS011;38747;53.140;6.498;2023-05-07T02:36:41;27.03;;;15.23;;
52878;SDS011;38747;53.140;6.498;2023-05-07T02:39:07;25.85;;;15.65;;
52878;SDS011;38747;53.140;6.498;2023-05-07T02:41:33;29.53;;;15.17;;
52878;SDS011;38747;53.140;6.498;2023-05-07T02:43:58;29.88;;;15.52;;
52878;SDS011;38747;53.140;6.498;2023-05-07T02:46:24;28.50;;;14.80;;
52878;SDS011;38747;53.140;6.498;2023-05-07T02:48:50;26.77;;;14.93;;
52878;SDS011;38747;53.140;6.498;2023-05-07T02:51:17;31.60;;;16.33;;
52878;SDS011;38747;53.140;6.498;2023-05-07T02:53:45;34.53;;;15.93;;
52878;SDS011;38747;53.140;6.498;2023-05-07T02:56:11;31.42;;;16.08;;
52878;SDS011;38747;53.140;6.498;2023-05-07T02:58:36;29.38;;;16.27;;
52878;SDS011;38747;53.140;6.498;2023-05-07T03:01:04;27.50;;;15.40;;
52878;SDS011;38747;53.140;6.498;2023-05-07T03:03:30;33.50;;;16.63;;
52878;SDS011;38747;53.140;6.498;2023-05-07T03:05:56;30.48;;;16.80;;
52878;SDS011;38747;53.140;6.498;2023-05-07T03:08:22;30.17;;;17.07;;
52878;SDS011;38747;53.140;6.498;2023-05-07T03:10:48;31.27;;;16.75;;
52878;SDS011;38747;53.140;6.498;2023-05-07T03:13:13;31.13;;;16.53;;
52878;SDS011;38747;53.140;6.498;2023-05-07T03:15:39;29.58;;;15.73;;
52878;SDS011;38747;53.140;6.498;2023-05-07T03:18:05;30.77;;;16.45;;
52878;SDS011;38747;53.140;6.498;2023-05-07T03:20:30;29.67;;;16.20;;
52878;SDS011;38747;53.140;6.498;2023-05-07T03:22:56;31.10;;;16.63;;
52878;SDS011;38747;53.140;6.498;2023-05-07T03:25:22;31.50;;;16.33;;
52878;SDS011;38747;53.140;6.498;2023-05-07T03:27:48;32.50;;;16.10;;
52878;SDS011;38747;53.140;6.498;2023-05-07T03:30:13;29.40;;;16.57;;
52878;SDS011;38747;53.140;6.498;2023-05-07T03:32:39;33.58;;;17.95;;
52878;SDS011;38747;53.140;6.498;2023-05-07T03:35:05;31.92;;;16.70;;
52878;SDS011;38747;53.140;6.498;2023-05-07T03:37:31;32.73;;;17.50;;
52878;SDS011;38747;53.140;6.498;2023-05-07T03:39:57;28.52;;;15.73;;
52878;SDS011;38747;53.140;6.498;2023-05-07T03:42:22;28.43;;;16.17;;
52878;SDS011;38747;53.140;6.498;2023-05-07T03:44:48;35.42;;;16.25;;
52878;SDS011;38747;53.140;6.498;2023-05-07T03:47:14;30.50;;;16.60;;
52878;SDS011;38747;53.140;6.498;2023-05-07T03:49:39;30.98;;;16.38;;
52878;SDS011;38747;53.140;6.498;2023-05-07T03:52:05;30.73;;;16.83;;
52878;SDS011;38747;53.140;6.498;2023-05-07T03:54:31;32.40;;;16.85;;
52878;SDS011;38747;53.140;6.498;2023-05-07T03:56:57;32.55;;;16.50;;
52878;SDS011;38747;53.140;6.498;2023-05-07T03:59:22;32.37;;;15.93;;
52878;SDS011;38747;53.140;6.498;2023-05-07T04:01:48;30.47;;;16.97;;
52878;SDS011;38747;53.140;6.498;2023-05-07T04:04:14;30.23;;;16.20;;
52878;SDS011;38747;53.140;6.498;2023-05-07T04:06:40;31.83;;;17.17;;
52878;SDS011;38747;53.140;6.498;2023-05-07T04:09:06;31.93;;;16.37;;
52878;SDS011;38747;53.140;6.498;2023-05-07T04:11:32;29.75;;;16.52;;
52878;SDS011;38747;53.140;6.498;2023-05-07T04:13:57;31.87;;;16.63;;
52878;SDS011;38747;53.140;6.498;2023-05-07T04:16:23;34.03;;;17.40;;
52878;SDS011;38747;53.140;6.498;2023-05-07T04:18:49;32.03;;;17.87;;
52878;SDS011;38747;53.140;6.498;2023-05-07T04:21:18;31.38;;;16.90;;
52878;SDS011;38747;53.140;6.498;2023-05-07T04:23:45;29.27;;;15.87;;
52878;SDS011;38747;53.140;6.498;2023-05-07T04:26:14;31.67;;;16.17;;
52878;SDS011;38747;53.140;6.498;2023-05-07T04:28:41;29.95;;;17.02;;
52878;SDS011;38747;53.140;6.498;2023-05-07T04:31:07;29.35;;;16.35;;
52878;SDS011;38747;53.140;6.498;2023-05-07T04:33:33;30.08;;;15.90;;
52878;SDS011;38747;53.140;6.498;2023-05-07T04:36:02;29.17;;;15.77;;
52878;SDS011;38747;53.140;6.498;2023-05-07T04:38:29;28.95;;;16.17;;
52878;SDS011;38747;53.140;6.498;2023-05-07T04:40:56;29.98;;;16.55;;
52878;SDS011;38747;53.140;6.498;2023-05-07T04:43:22;29.75;;;15.80;;
52878;SDS011;38747;53.140;6.498;2023-05-07T04:45:49;28.63;;;15.18;;
52878;SDS011;38747;53.140;6.498;2023-05-07T04:48:16;27.43;;;15.33;;
52878;SDS011;38747;53.140;6.498;2023-05-07T04:50:44;27.35;;;15.70;;
52878;SDS011;38747;53.140;6.498;2023-05-07T04:53:12;25.88;;;15.32;;
52878;SDS011;38747;53.140;6.498;2023-05-07T04:55:37;27.67;;;15.77;;
52878;SDS011;38747;53.140;6.498;2023-05-07T04:58:03;30.93;;;16.23;;
52878;SDS011;38747;53.140;6.498;2023-05-07T05:00:30;28.08;;;15.35;;
52878;SDS011;38747;53.140;6.498;2023-05-07T05:02:56;26.23;;;14.70;;
52878;SDS011;38747;53.140;6.498;2023-05-07T05:05:21;28.70;;;15.43;;
52878;SDS011;38747;53.140;6.498;2023-05-07T05:07:47;30.47;;;15.73;;
52878;SDS011;38747;53.140;6.498;2023-05-07T05:10:13;28.38;;;15.52;;
52878;SDS011;38747;53.140;6.498;2023-05-07T05:12:38;27.65;;;16.02;;
52878;SDS011;38747;53.140;6.498;2023-05-07T05:15:05;29.83;;;15.83;;
52878;SDS011;38747;53.140;6.498;2023-05-07T05:17:31;29.98;;;16.20;;
52878;SDS011;38747;53.140;6.498;2023-05-07T05:19:56;27.03;;;15.67;;
52878;SDS011;38747;53.140;6.498;2023-05-07T05:22:22;28.05;;;16.05;;
52878;SDS011;38747;53.140;6.498;2023-05-07T05:24:47;25.60;;;14.93;;
52878;SDS011;38747;53.140;6.498;2023-05-07T05:27:13;26.88;;;14.77;;
52878;SDS011;38747;53.140;6.498;2023-05-07T05:29:39;24.47;;;14.23;;
52878;SDS011;38747;53.140;6.498;2023-05-07T05:32:04;26.55;;;13.60;;
52878;SDS011;38747;53.140;6.498;2023-05-07T05:34:30;25.43;;;14.93;;
52878;SDS011;38747;53.140;6.498;2023-05-07T05:36:56;27.73;;;14.33;;
52878;SDS011;38747;53.140;6.498;2023-05-07T05:39:21;24.60;;;14.40;;
52878;SDS011;38747;53.140;6.498;2023-05-07T05:41:48;25.27;;;13.65;;
52878;SDS011;38747;53.140;6.498;2023-05-07T05:44:13;26.00;;;13.83;;
52878;SDS011;38747;53.140;6.498;2023-05-07T05:46:39;25.55;;;14.68;;
52878;SDS011;38747;53.140;6.498;2023-05-07T05:49:05;23.47;;;14.40;;
52878;SDS011;38747;53.140;6.498;2023-05-07T05:51:31;23.60;;;14.02;;
52878;SDS011;38747;53.140;6.498;2023-05-07T05:53:56;23.13;;;13.40;;
52878;SDS011;38747;53.140;6.498;2023-05-07T05:56:22;24.07;;;14.47;;
52878;SDS011;38747;53.140;6.498;2023-05-07T05:58:47;24.17;;;13.97;;
52878;SDS011;38747;53.140;6.498;2023-05-07T06:01:13;23.70;;;13.87;;
52878;SDS011;38747;53.140;6.498;2023-05-07T06:03:38;23.67;;;12.95;;
52878;SDS011;38747;53.140;6.498;2023-05-07T06:06:04;25.47;;;13.57;;
52878;SDS011;38747;53.140;6.498;2023-05-07T06:08:30;23.85;;;13.65;;
52878;SDS011;38747;53.140;6.498;2023-05-07T06:10:56;24.50;;;13.57;;
52878;SDS011;38747;53.140;6.498;2023-05-07T06:13:22;22.07;;;13.23;;
52878;SDS011;38747;53.140;6.498;2023-05-07T06:15:48;22.23;;;13.20;;
52878;SDS011;38747;53.140;6.498;2023-05-07T06:18:14;24.05;;;13.43;;
52878;SDS011;38747;53.140;6.498;2023-05-07T06:20:40;21.13;;;12.90;;
52878;SDS011;38747;53.140;6.498;2023-05-07T06:23:05;22.05;;;13.40;;
52878;SDS011;38747;53.140;6.498;2023-05-07T06:25:31;26.43;;;14.67;;
52878;SDS011;38747;53.140;6.498;2023-05-07T06:27:57;22.25;;;12.70;;
52878;SDS011;38747;53.140;6.498;2023-05-07T06:30:22;23.43;;;13.47;;
52878;SDS011;38747;53.140;6.498;2023-05-07T06:32:48;22.90;;;13.82;;
52878;SDS011;38747;53.140;6.498;2023-05-07T06:35:13;22.67;;;13.70;;
52878;SDS011;38747;53.140;6.498;2023-05-07T06:37:40;22.70;;;13.25;;
52878;SDS011;38747;53.140;6.498;2023-05-07T06:40:07;24.30;;;13.40;;
52878;SDS011;38747;53.140;6.498;2023-05-07T06:42:35;22.38;;;13.60;;
52878;SDS011;38747;53.140;6.498;2023-05-07T06:45:01;22.02;;;12.73;;
52878;SDS011;38747;53.140;6.498;2023-05-07T06:47:27;21.58;;;12.65;;
52878;SDS011;38747;53.140;6.498;2023-05-07T06:49:53;24.63;;;13.53;;
52878;SDS011;38747;53.140;6.498;2023-05-07T06:52:19;23.23;;;13.48;;
52878;SDS011;38747;53.140;6.498;2023-05-07T06:54:45;21.88;;;13.68;;
52878;SDS011;38747;53.140;6.498;2023-05-07T06:57:10;23.77;;;13.00;;
52878;SDS011;38747;53.140;6.498;2023-05-07T06:59:36;21.93;;;12.77;;
52878;SDS011;38747;53.140;6.498;2023-05-07T07:02:02;22.75;;;12.45;;
52878;SDS011;38747;53.140;6.498;2023-05-07T07:04:27;23.07;;;12.70;;
52878;SDS011;38747;53.140;6.498;2023-05-07T07:06:53;23.23;;;12.98;;
52878;SDS011;38747;53.140;6.498;2023-05-07T07:09:19;21.27;;;12.38;;
52878;SDS011;38747;53.140;6.498;2023-05-07T07:11:45;22.83;;;13.43;;
52878;SDS011;38747;53.140;6.498;2023-05-07T07:14:10;22.40;;;13.68;;
52878;SDS011;38747;53.140;6.498;2023-05-07T07:16:36;21.47;;;12.53;;
52878;SDS011;38747;53.140;6.498;2023-05-07T07:19:01;24.23;;;13.30;;
52878;SDS011;38747;53.140;6.498;2023-05-07T07:21:27;24.33;;;13.70;;
52878;SDS011;38747;53.140;6.498;2023-05-07T07:23:53;24.60;;;13.57;;
52878;SDS011;38747;53.140;6.498;2023-05-07T07:26:18;23.33;;;12.75;;
52878;SDS011;38747;53.140;6.498;2023-05-07T07:28:44;23.13;;;12.47;;
52878;SDS011;38747;53.140;6.498;2023-05-07T07:31:10;22.08;;;13.07;;
52878;SDS011;38747;53.140;6.498;2023-05-07T07:33:36;24.02;;;13.43;;
52878;SDS011;38747;53.140;6.498;2023-05-07T07:36:02;22.07;;;13.40;;
52878;SDS011;38747;53.140;6.498;2023-05-07T07:38:30;22.25;;;13.45;;
52878;SDS011;38747;53.140;6.498;2023-05-07T07:40:56;22.65;;;12.85;;
52878;SDS011;38747;53.140;6.498;2023-05-07T07:43:21;24.33;;;13.07;;
52878;SDS011;38747;53.140;6.498;2023-05-07T07:45:47;22.63;;;12.90;;
52878;SDS011;38747;53.140;6.498;2023-05-07T07:48:13;25.55;;;13.88;;
52878;SDS011;38747;53.140;6.498;2023-05-07T07:50:39;23.73;;;13.80;;
52878;SDS011;38747;53.140;6.498;2023-05-07T07:53:04;23.60;;;14.03;;
52878;SDS011;38747;53.140;6.498;2023-05-07T07:55:30;22.33;;;13.37;;
52878;SDS011;38747;53.140;6.498;2023-05-07T07:57:57;21.33;;;13.35;;
52878;SDS011;38747;53.140;6.498;2023-05-07T08:00:22;22.35;;;13.65;;
52878;SDS011;38747;53.140;6.498;2023-05-07T08:02:48;24.90;;;13.53;;
52878;SDS011;38747;53.140;6.498;2023-05-07T08:05:14;22.40;;;13.27;;
52878;SDS011;38747;53.140;6.498;2023-05-07T08:07:40;24.70;;;14.05;;
52878;SDS011;38747;53.140;6.498;2023-05-07T08:10:06;23.73;;;13.27;;
52878;SDS011;38747;53.140;6.498;2023-05-07T08:12:32;23.70;;;13.55;;
52878;SDS011;38747;53.140;6.498;2023-05-07T08:14:57;23.08;;;13.45;;
52878;SDS011;38747;53.140;6.498;2023-05-07T08:17:23;24.33;;;13.90;;
52878;SDS011;38747;53.140;6.498;2023-05-07T08:19:49;24.90;;;13.50;;
52878;SDS011;38747;53.140;6.498;2023-05-07T08:22:15;23.10;;;12.70;;
52878;SDS011;38747;53.140;6.498;2023-05-07T08:24:42;22.50;;;13.45;;
52878;SDS011;38747;53.140;6.498;2023-05-07T08:27:08;23.98;;;12.77;;
52878;SDS011;38747;53.140;6.498;2023-05-07T08:29:34;24.43;;;14.10;;
52878;SDS011;38747;53.140;6.498;2023-05-07T08:31:59;23.20;;;14.27;;
52878;SDS011;38747;53.140;6.498;2023-05-07T08:34:25;23.13;;;12.60;;
52878;SDS011;38747;53.140;6.498;2023-05-07T08:36:50;23.77;;;13.87;;
52878;SDS011;38747;53.140;6.498;2023-05-07T08:39:16;23.27;;;14.02;;
52878;SDS011;38747;53.140;6.498;2023-05-07T08:41:44;23.48;;;13.27;;
52878;SDS011;38747;53.140;6.498;2023-05-07T08:44:11;24.87;;;13.43;;
52878;SDS011;38747;53.140;6.498;2023-05-07T08:46:41;23.35;;;13.25;;
52878;SDS011;38747;53.140;6.498;2023-05-07T08:49:08;22.08;;;13.23;;
52878;SDS011;38747;53.140;6.498;2023-05-07T08:51:34;24.08;;;13.68;;
52878;SDS011;38747;53.140;6.498;2023-05-07T08:54:01;26.20;;;13.73;;
52878;SDS011;38747;53.140;6.498;2023-05-07T08:56:27;26.13;;;14.48;;
52878;SDS011;38747;53.140;6.498;2023-05-07T08:58:52;25.35;;;14.70;;
52878;SDS011;38747;53.140;6.498;2023-05-07T09:01:21;23.00;;;14.00;;
52878;SDS011;38747;53.140;6.498;2023-05-07T09:03:47;23.42;;;13.50;;
52878;SDS011;38747;53.140;6.498;2023-05-07T09:06:14;23.67;;;13.52;;
52878;SDS011;38747;53.140;6.498;2023-05-07T09:08:40;23.45;;;14.38;;
52878;SDS011;38747;53.140;6.498;2023-05-07T09:11:13;22.83;;;13.33;;
52878;SDS011;38747;53.140;6.498;2023-05-07T09:13:39;23.10;;;13.55;;
52878;SDS011;38747;53.140;6.498;2023-05-07T09:16:11;20.90;;;13.43;;
52878;SDS011;38747;53.140;6.498;2023-05-07T09:18:43;22.38;;;12.70;;
52878;SDS011;38747;53.140;6.498;2023-05-07T09:21:16;21.02;;;12.93;;
52878;SDS011;38747;53.140;6.498;2023-05-07T09:23:42;20.35;;;12.63;;
52878;SDS011;38747;53.140;6.498;2023-05-07T09:26:09;21.73;;;12.67;;
52878;SDS011;38747;53.140;6.498;2023-05-07T09:28:41;21.95;;;13.60;;
52878;SDS011;38747;53.140;6.498;2023-05-07T09:31:07;22.38;;;13.00;;
52878;SDS011;38747;53.140;6.498;2023-05-07T09:33:33;20.33;;;12.68;;
52878;SDS011;38747;53.140;6.498;2023-05-07T09:36:03;19.70;;;12.30;;
52878;SDS011;38747;53.140;6.498;2023-05-07T09:38:33;22.33;;;12.43;;
52878;SDS011;38747;53.140;6.498;2023-05-07T09:41:10;19.42;;;12.10;;
52878;SDS011;38747;53.140;6.498;2023-05-07T09:43:38;20.58;;;12.73;;
52878;SDS011;38747;53.140;6.498;2023-05-07T09:46:11;22.02;;;12.70;;
52878;SDS011;38747;53.140;6.498;2023-05-07T09:48:39;22.25;;;12.80;;
52878;SDS011;38747;53.140;6.498;2023-05-07T09:51:21;19.57;;;12.77;;
52878;SDS011;38747;53.140;6.498;2023-05-07T09:53:52;22.33;;;13.52;;
52878;SDS011;38747;53.140;6.498;2023-05-07T09:56:18;18.75;;;12.00;;
52878;SDS011;38747;53.140;6.498;2023-05-07T09:58:45;19.55;;;12.50;;
52878;SDS011;38747;53.140;6.498;2023-05-07T10:01:12;21.10;;;12.85;;
52878;SDS011;38747;53.140;6.498;2023-05-07T10:03:41;19.27;;;12.57;;
52878;SDS011;38747;53.140;6.498;2023-05-07T10:06:11;22.00;;;12.90;;
52878;SDS011;38747;53.140;6.498;2023-05-07T10:08:38;19.38;;;12.18;;
52878;SDS011;38747;53.140;6.498;2023-05-07T10:11:05;19.80;;;12.50;;
52878;SDS011;38747;53.140;6.498;2023-05-07T10:13:31;20.37;;;12.47;;
52878;SDS011;38747;53.140;6.498;2023-05-07T10:16:00;21.48;;;12.55;;
52878;SDS011;38747;53.140;6.498;2023-05-07T10:18:28;22.23;;;13.00;;
52878;SDS011;38747;53.140;6.498;2023-05-07T10:21:02;24.17;;;11.80;;
52878;SDS011;38747;53.140;6.498;2023-05-07T10:23:33;20.02;;;12.95;;
52878;SDS011;38747;53.140;6.498;2023-05-07T10:26:00;17.60;;;12.07;;
52878;SDS011;38747;53.140;6.498;2023-05-07T10:28:28;19.55;;;11.73;;
52878;SDS011;38747;53.140;6.498;2023-05-07T10:33:44;19.55;;;12.13;;
52878;SDS011;38747;53.140;6.498;2023-05-07T10:36:11;18.33;;;11.70;;
52878;SDS011;38747;53.140;6.498;2023-05-07T10:38:37;20.93;;;12.00;;
52878;SDS011;38747;53.140;6.498;2023-05-07T10:41:05;18.30;;;11.45;;
52878;SDS011;38747;53.140;6.498;2023-05-07T10:43:41;20.00;;;12.68;;
52878;SDS011;38747;53.140;6.498;2023-05-07T10:51:31;18.15;;;11.35;;
52878;SDS011;38747;53.140;6.498;2023-05-07T10:56:40;17.50;;;11.20;;
52878;SDS011;38747;53.140;6.498;2023-05-07T11:01:56;16.93;;;11.60;;
52878;SDS011;38747;53.140;6.498;2023-05-07T11:04:22;19.10;;;12.07;;
52878;SDS011;38747;53.140;6.498;2023-05-07T11:15:05;16.90;;;11.43;;
52878;SDS011;38747;53.140;6.498;2023-05-07T11:17:34;18.23;;;11.68;;
52878;SDS011;38747;53.140;6.498;2023-05-07T11:20:00;17.15;;;11.00;;
52878;SDS011;38747;53.140;6.498;2023-05-07T11:24:56;16.65;;;10.93;;
52878;SDS011;38747;53.140;6.498;2023-05-07T11:27:24;16.83;;;10.93;;
52878;SDS011;38747;53.140;6.498;2023-05-07T11:29:51;17.15;;;11.73;;
52878;SDS011;38747;53.140;6.498;2023-05-07T11:32:23;20.63;;;12.05;;
52878;SDS011;38747;53.140;6.498;2023-05-07T11:34:56;16.33;;;11.02;;
52878;SDS011;38747;53.140;6.498;2023-05-07T11:37:24;15.83;;;11.07;;
52878;SDS011;38747;53.140;6.498;2023-05-07T11:39:51;17.75;;;11.93;;
52878;SDS011;38747;53.140;6.498;2023-05-07T11:42:37;16.35;;;11.30;;
52878;SDS011;38747;53.140;6.498;2023-05-07T11:45:05;17.25;;;11.30;;
52878;SDS011;38747;53.140;6.498;2023-05-07T11:47:33;15.75;;;11.00;;
52878;SDS011;38747;53.140;6.498;2023-05-07T11:50:03;15.80;;;10.97;;
52878;SDS011;38747;53.140;6.498;2023-05-07T11:52:30;15.48;;;10.45;;
52878;SDS011;38747;53.140;6.498;2023-05-07T11:54:57;15.82;;;10.93;;
52878;SDS011;38747;53.140;6.498;2023-05-07T11:57:25;16.02;;;10.90;;
52878;SDS011;38747;53.140;6.498;2023-05-07T11:59:54;17.05;;;11.32;;
52878;SDS011;38747;53.140;6.498;2023-05-07T12:02:21;15.03;;;11.10;;
52878;SDS011;38747;53.140;6.498;2023-05-07T12:04:47;16.25;;;11.07;;
52878;SDS011;38747;53.140;6.498;2023-05-07T12:07:15;17.30;;;11.50;;
52878;SDS011;38747;53.140;6.498;2023-05-07T12:09:41;16.85;;;11.70;;
52878;SDS011;38747;53.140;6.498;2023-05-07T12:12:08;18.07;;;11.47;;
52878;SDS011;38747;53.140;6.498;2023-05-07T12:14:40;15.50;;;11.10;;
52878;SDS011;38747;53.140;6.498;2023-05-07T12:17:08;14.82;;;10.77;;
52878;SDS011;38747;53.140;6.498;2023-05-07T12:19:35;15.52;;;11.00;;
52878;SDS011;38747;53.140;6.498;2023-05-07T12:22:04;15.10;;;10.90;;
52878;SDS011;38747;53.140;6.498;2023-05-07T12:24:42;17.13;;;11.77;;
52878;SDS011;38747;53.140;6.498;2023-05-07T12:27:08;17.05;;;11.73;;
52878;SDS011;38747;53.140;6.498;2023-05-07T12:29:34;16.27;;;11.38;;
52878;SDS011;38747;53.140;6.498;2023-05-07T12:32:00;16.13;;;11.10;;
52878;SDS011;38747;53.140;6.498;2023-05-07T12:34:25;17.23;;;12.45;;
52878;SDS011;38747;53.140;6.498;2023-05-07T12:36:51;16.57;;;11.30;;
52878;SDS011;38747;53.140;6.498;2023-05-07T12:39:18;18.38;;;11.27;;
52878;SDS011;38747;53.140;6.498;2023-05-07T12:41:56;17.98;;;11.68;;
52878;SDS011;38747;53.140;6.498;2023-05-07T12:44:25;16.83;;;11.10;;
52878;SDS011;38747;53.140;6.498;2023-05-07T12:46:55;15.00;;;10.75;;
52878;SDS011;38747;53.140;6.498;2023-05-07T12:49:20;16.52;;;11.05;;
52878;SDS011;38747;53.140;6.498;2023-05-07T12:51:46;17.67;;;11.17;;
52878;SDS011;38747;53.140;6.498;2023-05-07T12:54:13;17.88;;;12.27;;
52878;SDS011;38747;53.140;6.498;2023-05-07T12:56:59;15.85;;;11.48;;
52878;SDS011;38747;53.140;6.498;2023-05-07T12:59:36;15.57;;;11.15;;
52878;SDS011;38747;53.140;6.498;2023-05-07T13:02:03;15.70;;;11.53;;
52878;SDS011;38747;53.140;6.498;2023-05-07T13:04:29;15.43;;;10.82;;
52878;SDS011;38747;53.140;6.498;2023-05-07T13:06:55;18.05;;;11.60;;
52878;SDS011;38747;53.140;6.498;2023-05-07T13:09:20;15.60;;;11.80;;
52878;SDS011;38747;53.140;6.498;2023-05-07T13:11:46;16.15;;;10.90;;
52878;SDS011;38747;53.140;6.498;2023-05-07T13:14:12;15.97;;;12.00;;
52878;SDS011;38747;53.140;6.498;2023-05-07T13:16:37;15.52;;;12.07;;
52878;SDS011;38747;53.140;6.498;2023-05-07T13:19:03;15.00;;;10.93;;
52878;SDS011;38747;53.140;6.498;2023-05-07T13:21:29;16.77;;;11.05;;
52878;SDS011;38747;53.140;6.498;2023-05-07T13:23:58;15.25;;;11.23;;
52878;SDS011;38747;53.140;6.498;2023-05-07T13:26:24;15.40;;;11.43;;
52878;SDS011;38747;53.140;6.498;2023-05-07T13:28:50;15.68;;;11.00;;
52878;SDS011;38747;53.140;6.498;2023-05-07T13:31:17;17.25;;;11.70;;
52878;SDS011;38747;53.140;6.498;2023-05-07T13:33:43;16.60;;;11.55;;
52878;SDS011;38747;53.140;6.498;2023-05-07T13:36:08;17.07;;;11.53;;
52878;SDS011;38747;53.140;6.498;2023-05-07T13:38:34;14.68;;;11.00;;
52878;SDS011;38747;53.140;6.498;2023-05-07T13:41:00;15.25;;;10.88;;
52878;SDS011;38747;53.140;6.498;2023-05-07T13:43:26;15.87;;;10.87;;
52878;SDS011;38747;53.140;6.498;2023-05-07T13:45:52;16.25;;;10.95;;
52878;SDS011;38747;53.140;6.498;2023-05-07T13:48:17;14.10;;;10.67;;
52878;SDS011;38747;53.140;6.498;2023-05-07T13:50:43;15.68;;;11.75;;
52878;SDS011;38747;53.140;6.498;2023-05-07T13:53:08;14.73;;;10.83;;
52878;SDS011;38747;53.140;6.498;2023-05-07T13:55:34;13.57;;;10.25;;
52878;SDS011;38747;53.140;6.498;2023-05-07T13:58:01;15.00;;;11.10;;
52878;SDS011;38747;53.140;6.498;2023-05-07T14:00:28;15.48;;;11.55;;
52878;SDS011;38747;53.140;6.498;2023-05-07T14:02:54;16.80;;;10.50;;
52878;SDS011;38747;53.140;6.498;2023-05-07T14:05:20;14.50;;;10.70;;
52878;SDS011;38747;53.140;6.498;2023-05-07T14:07:48;14.73;;;11.00;;
52878;SDS011;38747;53.140;6.498;2023-05-07T14:10:16;15.25;;;11.15;;
52878;SDS011;38747;53.140;6.498;2023-05-07T14:12:43;14.10;;;10.57;;
52878;SDS011;38747;53.140;6.498;2023-05-07T14:15:09;13.57;;;10.18;;
52878;SDS011;38747;53.140;6.498;2023-05-07T14:17:35;13.90;;;11.13;;
52878;SDS011;38747;53.140;6.498;2023-05-07T14:20:02;13.40;;;10.32;;
52878;SDS011;38747;53.140;6.498;2023-05-07T14:22:28;14.15;;;10.27;;
52878;SDS011;38747;53.140;6.498;2023-05-07T14:24:53;13.82;;;10.65;;
52878;SDS011;38747;53.140;6.498;2023-05-07T14:27:19;14.63;;;10.63;;
52878;SDS011;38747;53.140;6.498;2023-05-07T14:29:45;13.75;;;10.55;;
52878;SDS011;38747;53.140;6.498;2023-05-07T14:32:15;13.63;;;10.50;;
52878;SDS011;38747;53.140;6.498;2023-05-07T14:34:44;16.00;;;11.05;;
52878;SDS011;38747;53.140;6.498;2023-05-07T14:37:10;13.52;;;10.38;;
52878;SDS011;38747;53.140;6.498;2023-05-07T14:39:36;13.90;;;10.18;;
52878;SDS011;38747;53.140;6.498;2023-05-07T14:42:02;14.43;;;10.73;;